createdAt,value
2018-04-27T00:00:45.016Z,5.37
2018-04-27T00:05:48.284Z,3.70
2018-04-27T00:10:51.551Z,3.40
2018-04-27T00:15:54.783Z,4.80
2018-04-27T00:20:58.058Z,5.43
2018-04-27T00:26:01.300Z,5.10
2018-04-27T00:31:05.324Z,5.10
2018-04-27T00:36:08.572Z,2.87
2018-04-27T00:41:11.839Z,3.43
2018-04-27T00:46:15.091Z,4.20
2018-04-27T00:51:18.331Z,4.60
2018-04-27T00:56:21.601Z,3.50
2018-04-27T01:01:24.841Z,2.10
2018-04-27T01:06:28.154Z,2.30
2018-04-27T01:11:32.096Z,3.43
2018-04-27T01:16:35.340Z,4.63
2018-04-27T01:21:38.588Z,4.83
2018-04-27T01:26:41.868Z,4.50
2018-04-27T01:31:45.120Z,5.00
2018-04-27T01:36:48.364Z,4.50
2018-04-27T01:41:51.613Z,3.87
2018-04-27T01:46:56.531Z,4.23
2018-04-27T01:51:59.805Z,4.57
2018-04-27T01:57:03.062Z,4.53
2018-04-27T02:02:06.328Z,3.40
2018-04-27T02:07:09.650Z,4.20
2018-04-27T02:12:12.911Z,3.97
2018-04-27T02:17:16.176Z,4.50
2018-04-27T02:22:19.424Z,4.37
2018-04-27T02:27:22.677Z,4.40
2018-04-27T02:32:25.935Z,4.87
2018-04-27T02:37:29.187Z,4.40
2018-04-27T02:42:33.234Z,4.20
2018-04-27T02:47:36.477Z,4.10
2018-04-27T02:52:40.620Z,3.77
2018-04-27T02:57:43.903Z,3.80
2018-04-27T03:02:47.154Z,4.07
2018-04-27T03:07:50.433Z,3.43
2018-04-27T03:12:53.680Z,3.47
2018-04-27T03:17:56.956Z,4.37
2018-04-27T03:23:00.208Z,4.27
2018-04-27T03:28:03.463Z,3.23
2018-04-27T03:33:06.722Z,3.80
2018-04-27T03:38:09.971Z,4.60
2018-04-27T03:43:13.271Z,3.77
2018-04-27T03:48:16.527Z,4.20
2018-04-27T03:53:19.764Z,3.83
2018-04-27T03:58:23.072Z,3.20
2018-04-27T04:03:38.249Z,3.13
2018-04-27T04:08:41.551Z,4.20
2018-04-27T04:13:44.831Z,3.90
2018-04-27T04:18:48.083Z,4.00
2018-04-27T04:23:51.330Z,4.23
2018-04-27T04:28:54.597Z,3.57
2018-04-27T04:33:57.872Z,3.83
2018-04-27T04:39:02.736Z,4.67
2018-04-27T04:44:06.768Z,3.60
2018-04-27T04:49:10.027Z,4.63
2018-04-27T04:54:13.285Z,3.57
2018-04-27T04:59:16.768Z,4.00
2018-04-27T05:04:20.032Z,3.33
2018-04-27T05:09:23.305Z,3.00
2018-04-27T05:14:26.551Z,4.03
2018-04-27T05:19:29.799Z,3.00
2018-04-27T05:24:33.047Z,3.37
2018-04-27T05:29:36.357Z,2.97
2018-04-27T05:34:40.379Z,3.33
2018-04-27T05:39:43.634Z,4.00
2018-04-27T05:44:46.888Z,2.97
2018-04-27T05:49:50.908Z,3.03
2018-04-27T05:54:55.014Z,3.50
2018-04-27T05:59:58.247Z,4.00
2018-04-27T06:05:01.514Z,3.60
2018-04-27T06:10:04.918Z,2.93
2018-04-27T06:15:08.168Z,4.27
2018-04-27T06:20:11.432Z,3.70
2018-04-27T06:25:14.727Z,2.67
2018-04-27T06:30:17.986Z,3.20
2018-04-27T06:35:22.016Z,3.00
2018-04-27T06:40:25.282Z,3.40
2018-04-27T06:45:28.564Z,2.70
2018-04-27T06:50:31.833Z,2.27
2018-04-27T06:55:35.101Z,2.50
2018-04-27T07:00:38.367Z,2.70
2018-04-27T07:05:42.609Z,2.63
2018-04-27T07:10:45.983Z,2.43
2018-04-27T07:15:49.248Z,2.30
2018-04-27T07:20:52.532Z,2.77
2018-04-27T07:25:55.980Z,2.53
2018-04-27T07:30:59.169Z,3.27
2018-04-27T07:36:02.440Z,2.93
2018-04-27T07:41:06.475Z,2.63
2018-04-27T07:46:09.726Z,3.03
2018-04-27T07:51:13.011Z,2.03
2018-04-27T07:56:16.264Z,2.40
2018-04-27T08:01:19.532Z,1.97
2018-04-27T08:06:22.817Z,1.60
2018-04-27T08:11:26.110Z,1.57
2018-04-27T08:16:29.323Z,2.13
2018-04-27T08:21:33.351Z,1.90
2018-04-27T08:26:36.604Z,1.53
2018-04-27T08:31:40.624Z,2.47
2018-04-27T08:36:43.888Z,1.67
2018-04-27T08:41:47.136Z,2.00
2018-04-27T08:46:50.407Z,1.57
2018-04-27T08:51:54.414Z,1.77
2018-04-27T08:56:57.672Z,1.47
2018-04-27T09:02:00.912Z,2.20
2018-04-27T09:07:04.167Z,1.40
2018-04-27T09:12:07.427Z,1.87
2018-04-27T09:17:10.752Z,1.63
2018-04-27T09:22:14.009Z,1.87
2018-04-27T09:27:17.258Z,1.67
2018-04-27T09:32:20.514Z,2.13
2018-04-27T09:37:23.758Z,1.73
2018-04-27T09:42:27.032Z,2.10
2018-04-27T09:47:31.600Z,1.63
2018-04-27T09:52:34.875Z,2.13
2018-04-27T09:57:38.129Z,1.40
2018-04-27T10:02:41.381Z,1.40
2018-04-27T10:07:44.639Z,2.10
2018-04-27T10:12:47.938Z,2.10
2018-04-27T10:17:51.202Z,1.80
2018-04-27T10:22:55.215Z,1.93
2018-04-27T10:27:58.519Z,2.40
2018-04-27T10:33:01.752Z,2.10
2018-04-27T10:38:05.788Z,2.50
2018-04-27T10:43:09.057Z,1.80
2018-04-27T10:48:12.279Z,2.43
2018-04-27T10:53:16.283Z,1.77
2018-04-27T10:58:19.531Z,1.90
2018-04-27T11:03:23.626Z,1.63
2018-04-27T11:08:26.839Z,1.93
2018-04-27T11:13:30.178Z,1.50
2018-04-27T11:18:33.443Z,2.33
2018-04-27T11:23:36.695Z,1.50
2018-04-27T11:28:39.973Z,1.50
2018-04-27T11:33:43.208Z,1.80
2018-04-27T11:38:46.472Z,1.70
2018-04-27T11:43:49.731Z,1.00
2018-04-27T11:48:52.988Z,1.73
2018-04-27T11:53:56.352Z,1.80
2018-04-27T11:58:59.666Z,1.90
2018-04-27T12:04:03.679Z,1.70
2018-04-27T12:09:06.967Z,1.40
2018-04-27T12:14:10.295Z,1.93
2018-04-27T12:19:13.551Z,1.80
2018-04-27T12:24:16.882Z,1.50
2018-04-27T12:29:20.831Z,1.70
2018-04-27T12:34:24.862Z,1.93
2018-04-27T12:39:28.885Z,1.30
2018-04-27T12:44:32.149Z,1.73
2018-04-27T12:49:35.402Z,1.80
2018-04-27T12:54:39.441Z,1.40
2018-04-27T12:59:42.700Z,1.37
2018-04-27T13:04:45.955Z,1.77
2018-04-27T13:09:49.222Z,2.00
2018-04-27T13:14:52.528Z,1.60
2018-04-27T13:19:56.575Z,2.00
2018-04-27T13:24:59.825Z,1.80
2018-04-27T13:30:03.162Z,1.60
2018-04-27T13:35:07.111Z,1.53
2018-04-27T13:40:10.369Z,1.50
2018-04-27T13:45:13.623Z,1.43
2018-04-27T13:50:16.879Z,1.90
2018-04-27T13:55:20.143Z,1.40
2018-04-27T14:00:23.401Z,2.10
2018-04-27T14:05:26.652Z,1.60
2018-04-27T14:10:29.891Z,1.63
2018-04-27T14:15:33.700Z,2.00
2018-04-27T14:20:37.715Z,1.47
2018-04-27T14:25:40.978Z,1.33
2018-04-27T14:30:44.237Z,1.73
2018-04-27T14:35:48.267Z,1.93
2018-04-27T14:40:51.541Z,1.53
2018-04-27T14:45:54.820Z,1.63
2018-04-27T14:50:58.068Z,1.70
2018-04-27T14:56:02.122Z,1.80
2018-04-27T15:01:05.430Z,2.30
2018-04-27T15:06:08.701Z,1.80
2018-04-27T15:11:11.971Z,1.90
2018-04-27T15:16:15.246Z,1.87
2018-04-27T15:21:19.318Z,1.80
2018-04-27T15:26:22.593Z,2.10
2018-04-27T15:31:26.612Z,2.23
2018-04-27T15:36:30.002Z,2.00
2018-04-27T15:41:33.253Z,2.30
2018-04-27T15:46:36.540Z,1.63
2018-04-27T15:51:40.598Z,1.53
2018-04-27T15:56:43.970Z,2.10
2018-04-27T16:01:48.930Z,1.83
2018-04-27T16:06:53.079Z,2.10
2018-04-27T16:11:56.378Z,1.57
2018-04-27T16:17:00.391Z,2.13
2018-04-27T16:22:03.671Z,1.90
2018-04-27T16:27:07.254Z,2.07
2018-04-27T16:32:10.519Z,2.00
2018-04-27T16:37:13.803Z,1.67
2018-04-27T16:42:17.076Z,2.97
2018-04-27T16:47:20.337Z,1.70
2018-04-27T16:52:23.793Z,2.03
2018-04-27T16:57:27.058Z,2.20
2018-04-27T17:02:31.148Z,1.30
2018-04-27T17:07:34.573Z,2.00
2018-04-27T17:12:37.834Z,1.67
2018-04-27T17:17:41.940Z,1.83
2018-04-27T17:22:45.309Z,1.40
2018-04-27T17:27:48.512Z,2.00
2018-04-27T17:32:51.788Z,1.87
2018-04-27T17:37:55.032Z,1.60
2018-04-27T17:42:58.300Z,1.90
2018-04-27T17:48:02.440Z,2.20
2018-04-27T17:53:05.651Z,1.40
2018-04-27T17:58:08.891Z,1.50
2018-04-27T18:03:12.173Z,1.90
2018-04-27T18:08:15.471Z,1.60
2018-04-27T18:13:18.738Z,1.60
2018-04-27T18:18:22.171Z,2.23
2018-04-27T18:23:25.480Z,2.00
2018-04-27T18:28:29.516Z,1.70
2018-04-27T18:33:32.805Z,1.50
2018-04-27T18:38:36.894Z,1.80
2018-04-27T18:43:40.176Z,1.80
2018-04-27T18:48:43.428Z,1.77
2018-04-27T18:53:46.730Z,1.60
2018-04-27T18:58:55.679Z,1.80
2018-04-27T19:04:01.205Z,1.90
2018-04-27T19:09:04.470Z,1.70
2018-04-27T19:14:08.495Z,1.63
2018-04-27T19:19:12.684Z,1.70
2018-04-27T19:24:15.999Z,2.00
2018-04-27T19:29:19.271Z,1.73
2018-04-27T19:34:22.569Z,2.00
2018-04-27T19:39:25.887Z,1.90
2018-04-27T19:44:29.919Z,2.00
2018-04-27T19:49:33.215Z,3.20
2018-04-27T19:54:36.527Z,2.60
2018-04-27T19:59:39.809Z,3.27
2018-04-27T20:04:43.859Z,2.57
2018-04-27T20:09:50.623Z,2.30
2018-04-27T20:14:53.894Z,3.00
2018-04-27T20:19:57.200Z,2.57
2018-04-27T20:25:01.494Z,2.20
2018-04-27T20:30:05.963Z,3.30
2018-04-27T20:35:10.908Z,3.23
2018-04-27T20:40:14.971Z,2.87
2018-04-27T20:45:21.125Z,3.07
2018-04-27T20:50:27.215Z,3.57
2018-04-27T20:55:31.361Z,2.97
2018-04-27T21:00:34.624Z,2.57
2018-04-27T21:05:37.879Z,2.60
2018-04-27T21:10:41.244Z,3.57
2018-04-27T21:15:44.524Z,2.70
2018-04-27T21:20:47.843Z,2.73
2018-04-27T21:25:51.919Z,2.60
2018-04-27T21:30:55.182Z,3.53
2018-04-27T21:36:00.282Z,3.53
2018-04-27T21:46:34.202Z,3.30
2018-04-27T21:51:37.467Z,3.47
2018-04-27T21:56:56.939Z,3.53
2018-04-27T22:02:00.518Z,3.07
2018-04-27T22:07:05.493Z,3.50
2018-04-27T22:12:08.764Z,3.57
2018-04-27T22:17:24.580Z,3.23
2018-04-27T22:22:27.905Z,3.53
2018-04-27T22:27:31.163Z,3.30
2018-04-27T22:32:36.900Z,3.33
2018-04-27T22:37:42.562Z,3.13
2018-04-27T22:42:50.383Z,2.80
2018-04-27T22:48:29.299Z,3.63
2018-04-27T22:53:37.028Z,3.10
2018-04-27T22:58:40.327Z,2.77
2018-04-27T23:03:44.336Z,3.13
2018-04-27T23:08:49.281Z,3.87
2018-04-27T23:14:06.341Z,3.00
2018-04-27T23:19:10.383Z,4.10
2018-04-27T23:24:13.723Z,2.80
2018-04-27T23:29:16.979Z,4.17
2018-04-27T23:34:21.147Z,3.53
2018-04-27T23:39:25.175Z,3.37
2018-04-27T23:44:28.429Z,3.37
2018-04-27T23:49:31.687Z,3.60
2018-04-27T23:54:34.940Z,3.00
2018-04-27T23:59:42.691Z,2.93
